Time;durP1;ratioP1;P1;durP2;ratioP2;P2;SDS_P1;SDS_P2;PMS_P1;PMS_P2;Temp;Humidity;BMP_temperature;BMP_pressure;BME280_temperature;BME280_humidity;BME280_pressure;Samples;Min_cycle;Max_cycle;Signal;HPM_P1;HPM_P2
2021/12/28 00:00:27;;;;;;;21.33;4.13;;;9.70;99.90;;;;;;4943961;28;20108;-83
2021/12/28 00:02:55;;;;;;;18.63;3.20;;;9.60;99.90;;;;;;4946694;28;20444;-79
2021/12/28 00:05:22;;;;;;;19.17;3.78;;;9.70;99.90;;;;;;4919535;28;20029;-80
2021/12/28 00:07:48;;;;;;;28.65;4.15;;;9.80;99.90;;;;;;4949646;28;20129;-81
2021/12/28 00:10:19;;;;;;;19.52;3.40;;;9.80;99.90;;;;;;4911831;28;20028;-83
2021/12/28 00:12:45;;;;;;;22.92;3.65;;;9.80;99.90;;;;;;4920131;28;20051;-82
2021/12/28 00:18:03;;;;;;;16.52;3.85;;;9.80;99.90;;;;;;4919265;28;20032;-82
2021/12/28 00:20:35;;;;;;;17.20;3.30;;;9.70;99.90;;;;;;4913051;28;20035;-82
2021/12/28 00:23:02;;;;;;;20.95;4.18;;;9.70;99.90;;;;;;4919193;28;20367;-81
2021/12/28 00:25:28;;;;;;;20.50;4.95;;;9.80;99.90;;;;;;4920686;28;20028;-80
2021/12/28 00:27:54;;;;;;;17.52;3.83;;;9.70;99.90;;;;;;4920867;28;20032;-79
2021/12/28 00:30:20;;;;;;;23.55;4.38;;;9.70;99.90;;;;;;4932294;28;20058;-84
2021/12/28 00:32:52;;;;;;;26.30;3.83;;;9.70;99.90;;;;;;4915129;28;20027;-85
2021/12/28 00:35:18;;;;;;;18.00;3.92;;;9.60;99.90;;;;;;4918281;28;20043;-85
2021/12/28 00:37:43;;;;;;;17.08;4.15;;;9.60;99.90;;;;;;4931889;28;20040;-85
2021/12/28 00:40:09;;;;;;;21.40;3.47;;;9.70;99.90;;;;;;4935379;28;20158;-84
2021/12/28 00:42:35;;;;;;;17.38;2.92;;;9.50;99.90;;;;;;4914910;28;20454;-85
2021/12/28 00:45:01;;;;;;;15.10;3.28;;;9.60;99.90;;;;;;4912479;28;20048;-84
2021/12/28 00:47:26;;;;;;;17.15;3.35;;;9.60;99.90;;;;;;4921325;28;20056;-84
2021/12/28 00:49:52;;;;;;;19.20;3.47;;;9.70;99.90;;;;;;4929518;28;20034;-86
2021/12/28 00:52:17;;;;;;;18.55;3.55;;;9.60;99.90;;;;;;4955733;28;20027;-84
2021/12/28 00:54:43;;;;;;;12.75;2.72;;;9.60;99.90;;;;;;4922753;28;20040;-83
2021/12/28 00:57:09;;;;;;;10.02;2.47;;;9.70;99.90;;;;;;4933133;28;20033;-84
2021/12/28 00:59:34;;;;;;;16.88;3.97;;;9.80;99.90;;;;;;4911529;28;20036;-80
2021/12/28 01:02:00;;;;;;;19.50;3.78;;;9.80;99.90;;;;;;4960577;28;20112;-82
2021/12/28 01:04:26;;;;;;;19.77;3.15;;;9.70;99.90;;;;;;4924564;28;20434;-82
2021/12/28 01:06:52;;;;;;;14.13;2.58;;;10.00;99.90;;;;;;4941819;28;20029;-83
2021/12/28 01:09:17;;;;;;;14.02;2.90;;;10.00;99.90;;;;;;4926103;28;20033;-81
2021/12/28 01:11:43;;;;;;;17.30;2.53;;;9.70;99.90;;;;;;4942184;28;20497;-82
2021/12/28 01:14:09;;;;;;;11.25;2.45;;;9.80;99.90;;;;;;4916393;28;20021;-85
2021/12/28 01:16:35;;;;;;;13.35;2.88;;;9.80;99.90;;;;;;4946398;28;20026;-80
2021/12/28 01:19:00;;;;;;;13.07;2.50;;;9.80;99.90;;;;;;4920952;28;20058;-84
2021/12/28 01:21:26;;;;;;;18.60;3.13;;;9.70;99.90;;;;;;4918405;28;20047;-84
2021/12/28 01:23:52;;;;;;;12.73;2.90;;;9.90;99.90;;;;;;4913250;28;20048;-84
2021/12/28 01:26:18;;;;;;;9.45;2.92;;;9.80;99.90;;;;;;4926626;28;20111;-84
2021/12/28 01:28:43;;;;;;;12.32;2.45;;;9.80;99.90;;;;;;4919509;28;20071;-84
2021/12/28 01:31:09;;;;;;;12.50;2.20;;;9.90;99.90;;;;;;4933184;28;20028;-83
2021/12/28 01:33:35;;;;;;;8.88;1.75;;;10.10;99.90;;;;;;4915058;28;20055;-80
2021/12/28 01:36:00;;;;;;;12.95;2.35;;;9.90;99.90;;;;;;4923035;28;20040;-83
2021/12/28 01:38:26;;;;;;;10.25;3.17;;;9.90;99.90;;;;;;4937132;28;20489;-85
2021/12/28 01:40:53;;;;;;;14.38;2.90;;;9.80;99.90;;;;;;4930527;28;20024;-79
2021/12/28 01:43:21;;;;;;;10.00;2.40;;;9.80;99.90;;;;;;4903259;28;20045;-82
2021/12/28 01:45:53;;;;;;;10.35;2.17;;;9.80;99.90;;;;;;4916772;28;20109;-81
2021/12/28 01:48:25;;;;;;;12.90;3.13;;;9.80;99.90;;;;;;4944407;28;20049;-83
2021/12/28 01:50:54;;;;;;;24.50;9.90;;;9.80;99.90;;;;;;4953842;28;20148;-82
2021/12/28 01:53:19;;;;;;;13.60;3.80;;;9.90;99.90;;;;;;4928896;28;20083;-82
2021/12/28 01:55:48;;;;;;;7.75;2.58;;;10.00;99.90;;;;;;4915126;28;20497;-82
2021/12/28 01:58:14;;;;;;;13.68;2.40;;;10.00;99.90;;;;;;4916620;28;20032;-82
2021/12/28 02:00:42;;;;;;;12.32;2.92;;;10.00;99.90;;;;;;4921006;28;20028;-82
2021/12/28 02:03:10;;;;;;;22.52;7.05;;;10.00;99.90;;;;;;4947980;28;20047;-82
2021/12/28 02:05:36;;;;;;;10.85;2.40;;;10.10;99.90;;;;;;4911063;28;20035;-81
2021/12/28 02:08:03;;;;;;;13.40;2.03;;;10.00;99.90;;;;;;4919300;28;20055;-81
2021/12/28 02:10:29;;;;;;;12.48;3.53;;;10.00;99.90;;;;;;4923964;28;20039;-82
2021/12/28 02:12:54;;;;;;;12.15;2.67;;;10.00;99.90;;;;;;4928976;28;20476;-84
2021/12/28 02:15:20;;;;;;;12.80;2.03;;;10.00;99.90;;;;;;4919990;28;20075;-82
2021/12/28 02:17:45;;;;;;;9.77;1.83;;;10.00;99.90;;;;;;4952061;28;20123;-82
2021/12/28 02:20:18;;;;;;;14.48;3.13;;;10.00;99.90;;;;;;4917530;28;20102;-79
2021/12/28 02:22:43;;;;;;;11.25;3.08;;;10.00;99.90;;;;;;4919936;28;20119;-81
2021/12/28 02:25:10;;;;;;;8.57;2.60;;;10.90;99.90;;;;;;4922118;28;20084;-81
2021/12/28 02:27:36;;;;;;;8.80;2.65;;;10.10;99.90;;;;;;4912863;28;20614;-81
2021/12/28 02:30:09;;;;;;;11.65;2.47;;;10.00;99.90;;;;;;4921876;28;20025;-80
2021/12/28 02:32:38;;;;;;;9.95;2.20;;;9.90;99.90;;;;;;4912650;28;20048;-80
2021/12/28 02:35:07;;;;;;;23.67;8.63;;;10.00;99.90;;;;;;4919072;28;20039;-83
2021/12/28 02:37:33;;;;;;;10.75;2.50;;;9.90;99.90;;;;;;4922489;28;20516;-80
2021/12/28 02:39:58;;;;;;;12.57;3.53;;;9.80;99.90;;;;;;4913018;28;20032;-83
2021/12/28 02:42:24;;;;;;;13.02;2.38;;;9.70;99.90;;;;;;4909878;28;20029;-81
2021/12/28 02:45:24;;;;;;;12.57;3.15;;;9.60;99.90;;;;;;4944216;28;20026;-79
2021/12/28 02:47:53;;;;;;;8.47;2.33;;;9.70;99.90;;;;;;4914336;28;20036;-81
2021/12/28 02:50:28;;;;;;;9.70;2.13;;;9.60;99.90;;;;;;4922872;28;20028;-81
2021/12/28 02:52:54;;;;;;;10.50;2.20;;;9.60;99.90;;;;;;4910826;28;20028;-79
2021/12/28 02:55:23;;;;;;;9.77;2.50;;;9.50;99.90;;;;;;4933107;28;20032;-80
2021/12/28 02:57:59;;;;;;;12.18;2.22;;;10.70;99.90;;;;;;4914836;28;20036;-80
2021/12/28 03:00:41;;;;;;;10.93;2.10;;;9.40;99.90;;;;;;4913650;28;20020;-80
2021/12/28 03:03:13;;;;;;;8.68;2.10;;;9.40;99.90;;;;;;4945294;28;20039;-80
2021/12/28 03:05:42;;;;;;;8.55;1.90;;;9.40;99.90;;;;;;4922996;28;20112;-80
2021/12/28 03:08:09;;;;;;;10.35;2.20;;;9.40;99.90;;;;;;4949505;28;20060;-80
2021/12/28 03:10:36;;;;;;;8.88;2.00;;;9.40;99.90;;;;;;4918659;28;20401;-79
2021/12/28 03:13:04;;;;;;;8.13;2.22;;;9.40;99.90;;;;;;4938502;28;20725;-80
2021/12/28 03:15:29;;;;;;;8.70;2.40;;;9.80;99.90;;;;;;4918948;28;20036;-80
2021/12/28 03:17:58;;;;;;;9.20;1.88;;;9.40;99.90;;;;;;4924303;28;20083;-83
2021/12/28 03:20:24;;;;;;;8.10;2.05;;;9.50;99.90;;;;;;4924825;28;20025;-80
2021/12/28 03:22:50;;;;;;;9.02;2.25;;;9.50;99.90;;;;;;4926544;28;20025;-80
2021/12/28 03:25:16;;;;;;;5.72;1.75;;;9.50;99.90;;;;;;4915138;28;20051;-79
2021/12/28 03:27:43;;;;;;;6.13;1.65;;;9.50;99.90;;;;;;4918606;28;20046;-80
2021/12/28 03:30:12;;;;;;;8.40;1.60;;;9.50;99.90;;;;;;4916846;28;20036;-81
2021/12/28 03:32:38;;;;;;;8.93;1.80;;;9.50;99.90;;;;;;4939933;28;20039;-81
2021/12/28 03:35:07;;;;;;;4.43;1.42;;;10.10;99.90;;;;;;4912357;28;20032;-81
2021/12/28 03:37:34;;;;;;;7.13;1.50;;;9.60;99.90;;;;;;4919245;28;20044;-81
2021/12/28 03:40:02;;;;;;;6.15;1.60;;;9.60;99.90;;;;;;4914603;28;20512;-79
2021/12/28 03:42:28;;;;;;;2.70;1.10;;;9.80;99.90;;;;;;4912326;28;20079;-80
2021/12/28 03:44:53;;;;;;;3.45;0.95;;;11.00;99.90;;;;;;4927282;28;20031;-82
2021/12/28 03:47:19;;;;;;;4.90;1.10;;;9.80;99.90;;;;;;4917302;28;20131;-80
2021/12/28 03:49:45;;;;;;;4.65;1.13;;;9.80;99.90;;;;;;4905630;28;20031;-80
2021/12/28 03:52:10;;;;;;;6.05;1.30;;;9.80;99.90;;;;;;4935278;28;20111;-83
2021/12/28 03:54:36;;;;;;;4.43;0.90;;;9.70;99.90;;;;;;4925165;28;20031;-79
2021/12/28 03:57:04;;;;;;;6.90;2.05;;;9.70;99.90;;;;;;4904845;28;20108;-84
2021/12/28 03:59:30;;;;;;;6.00;1.77;;;9.70;99.90;;;;;;4913507;28;20027;-80
2021/12/28 04:01:56;;;;;;;10.25;2.40;;;9.70;99.90;;;;;;4914429;28;20481;-80
2021/12/28 04:04:22;;;;;;;7.32;2.03;;;9.70;99.90;;;;;;4916161;28;20059;-80
2021/12/28 04:06:48;;;;;;;7.10;1.65;;;9.60;99.90;;;;;;4932335;28;20397;-81
2021/12/28 04:09:34;;;;;;;3.40;1.10;;;9.60;99.90;;;;;;4916483;28;20032;-80
2021/12/28 04:11:59;;;;;;;6.97;1.00;;;9.60;99.90;;;;;;4941477;28;20474;-82
2021/12/28 04:14:25;;;;;;;7.65;1.70;;;9.50;99.90;;;;;;4918331;28;20988;-81
2021/12/28 04:16:51;;;;;;;5.38;1.30;;;9.50;99.90;;;;;;4929487;28;20029;-81
2021/12/28 04:19:16;;;;;;;1.80;0.80;;;9.50;99.90;;;;;;4922690;28;20031;-81
2021/12/28 04:21:42;;;;;;;5.18;1.65;;;9.50;99.90;;;;;;4939024;28;20022;-83
2021/12/28 04:24:08;;;;;;;3.97;1.02;;;9.50;99.90;;;;;;4913549;28;20028;-81
2021/12/28 04:26:33;;;;;;;5.20;1.10;;;9.60;99.90;;;;;;4914996;28;20028;-82
2021/12/28 04:28:59;;;;;;;2.50;0.80;;;9.60;99.90;;;;;;4912238;28;20051;-83
2021/12/28 04:31:27;;;;;;;6.30;1.98;;;9.70;99.90;;;;;;4919751;28;20043;-82
2021/12/28 04:33:53;;;;;;;6.88;1.17;;;9.30;99.90;;;;;;4927542;28;20040;-81
2021/12/28 04:36:20;;;;;;;3.42;0.90;;;9.40;99.90;;;;;;4917398;28;20299;-82
2021/12/28 04:38:46;;;;;;;1.23;0.60;;;9.40;99.90;;;;;;4939890;28;20086;-82
2021/12/28 04:41:12;;;;;;;1.42;0.70;;;9.40;99.90;;;;;;4928341;28;20035;-82
2021/12/28 04:43:38;;;;;;;3.25;0.88;;;9.40;99.90;;;;;;4926018;28;20596;-83
2021/12/28 04:46:05;;;;;;;2.15;0.82;;;9.30;99.90;;;;;;4926908;28;20055;-84
2021/12/28 04:48:32;;;;;;;2.35;0.82;;;9.40;99.90;;;;;;4917262;28;20067;-83
2021/12/28 04:50:57;;;;;;;7.90;2.47;;;10.60;99.90;;;;;;4968984;28;20052;-81
2021/12/28 04:53:23;;;;;;;2.75;0.80;;;9.20;99.90;;;;;;4928131;28;20039;-84
2021/12/28 04:55:50;;;;;;;2.35;0.90;;;9.20;99.90;;;;;;4924302;28;20883;-82
2021/12/28 04:58:17;;;;;;;4.55;1.40;;;9.20;99.90;;;;;;4928549;28;20036;-83
2021/12/28 05:00:46;;;;;;;2.33;0.80;;;9.10;99.90;;;;;;4921745;28;20033;-82
2021/12/28 05:03:13;;;;;;;3.60;1.15;;;9.00;99.90;;;;;;4948143;28;20024;-80
2021/12/28 05:05:43;;;;;;;3.80;1.20;;;9.10;99.90;;;;;;4920658;28;20034;-84
2021/12/28 05:08:10;;;;;;;3.80;1.15;;;9.10;99.90;;;;;;4921286;28;20485;-80
2021/12/28 05:10:36;;;;;;;1.15;0.70;;;9.10;99.90;;;;;;4915891;28;20616;-79
2021/12/28 05:13:02;;;;;;;6.18;1.40;;;9.10;99.90;;;;;;4917406;28;20047;-79
2021/12/28 05:15:28;;;;;;;1.65;0.77;;;9.00;99.90;;;;;;4942448;28;20028;-79
2021/12/28 05:17:54;;;;;;;3.03;0.73;;;9.00;99.90;;;;;;4923533;28;20031;-80
2021/12/28 05:20:22;;;;;;;23.50;6.68;;;9.00;99.90;;;;;;4916427;28;20059;-81
2021/12/28 05:22:48;;;;;;;2.67;0.85;;;9.10;99.90;;;;;;4918635;28;20032;-84
2021/12/28 05:25:13;;;;;;;3.15;1.02;;;9.10;99.90;;;;;;4920440;28;20097;-84
2021/12/28 05:27:39;;;;;;;4.00;1.17;;;9.20;99.90;;;;;;4917346;28;20082;-83
2021/12/28 05:30:07;;;;;;;2.05;0.90;;;9.30;99.90;;;;;;4923122;28;20028;-80
2021/12/28 05:32:32;;;;;;;1.35;0.60;;;9.30;99.90;;;;;;4948498;28;20040;-81
2021/12/28 05:34:58;;;;;;;2.17;0.70;;;9.30;99.90;;;;;;4921037;28;20036;-86
2021/12/28 05:37:24;;;;;;;3.00;0.57;;;9.30;99.90;;;;;;4918592;28;20039;-81
2021/12/28 05:39:49;;;;;;;6.07;1.88;;;9.30;99.90;;;;;;4924961;28;20036;-82
2021/12/28 05:42:15;;;;;;;1.50;0.70;;;9.30;99.90;;;;;;4929771;28;20027;-82
2021/12/28 05:44:41;;;;;;;0.80;0.50;;;9.30;99.90;;;;;;4927247;28;20034;-81
2021/12/28 05:47:06;;;;;;;2.42;0.70;;;9.30;99.90;;;;;;4951121;28;20395;-82
2021/12/28 05:49:32;;;;;;;2.03;0.85;;;9.40;99.90;;;;;;4924296;28;20102;-81
2021/12/28 05:51:58;;;;;;;3.10;0.73;;;9.40;99.90;;;;;;4923417;28;20028;-85
2021/12/28 05:54:24;;;;;;;1.95;0.80;;;9.50;99.90;;;;;;4955008;28;20110;-83
2021/12/28 05:56:49;;;;;;;1.90;0.80;;;9.80;99.90;;;;;;4923159;28;20032;-83
2021/12/28 05:59:15;;;;;;;1.27;0.60;;;9.60;99.90;;;;;;4920488;28;20037;-81
2021/12/28 06:01:40;;;;;;;0.90;0.60;;;9.60;99.90;;;;;;4919431;28;20038;-81
2021/12/28 06:04:07;;;;;;;3.05;0.70;;;9.60;99.90;;;;;;4937172;28;20119;-81
2021/12/28 06:06:33;;;;;;;2.22;0.70;;;10.30;99.90;;;;;;4927969;28;20028;-82
2021/12/28 06:09:00;;;;;;;4.05;1.40;;;9.80;99.90;;;;;;4950609;28;20060;-84
2021/12/28 06:11:26;;;;;;;2.17;0.65;;;9.70;99.90;;;;;;4926867;28;20096;-81
2021/12/28 06:13:52;;;;;;;2.25;0.82;;;9.70;99.90;;;;;;4917204;28;20500;-82
2021/12/28 06:16:18;;;;;;;1.98;0.70;;;9.70;99.90;;;;;;4920176;28;20028;-82
2021/12/28 06:18:44;;;;;;;2.25;0.80;;;9.80;99.90;;;;;;4913981;28;20036;-85
2021/12/28 06:21:09;;;;;;;1.73;0.82;;;10.00;99.90;;;;;;4931530;28;20039;-81
2021/12/28 06:23:35;;;;;;;1.60;0.80;;;9.70;99.90;;;;;;4921367;28;20485;-84
2021/12/28 06:26:01;;;;;;;3.28;1.08;;;9.70;99.90;;;;;;4919888;28;20043;-81
2021/12/28 06:28:27;;;;;;;1.55;0.80;;;9.70;99.90;;;;;;4952560;28;20119;-82
2021/12/28 06:30:56;;;;;;;1.77;1.20;;;9.70;99.90;;;;;;4930579;28;20052;-85
2021/12/28 06:33:22;;;;;;;2.70;1.08;;;9.70;99.90;;;;;;4925481;28;20060;-83
2021/12/28 06:35:49;;;;;;;1.52;1.20;;;9.70;99.90;;;;;;4920879;28;20040;-82
2021/12/28 06:38:16;;;;;;;2.72;1.10;;;9.90;99.90;;;;;;4921698;28;20025;-82
2021/12/28 06:40:42;;;;;;;2.92;1.20;;;11.20;99.90;;;;;;4928575;28;20154;-84
2021/12/28 06:43:08;;;;;;;2.85;1.10;;;9.90;99.90;;;;;;4912054;28;20044;-81
2021/12/28 06:45:34;;;;;;;1.55;0.90;;;12.30;99.90;;;;;;4926211;28;20048;-81
2021/12/28 06:48:00;;;;;;;1.30;0.98;;;9.90;99.90;;;;;;4924952;28;20649;-81
2021/12/28 06:50:26;;;;;;;1.00;0.90;;;9.80;99.90;;;;;;4927912;28;20028;-88
2021/12/28 06:52:52;;;;;;;2.78;0.80;;;9.80;99.90;;;;;;4911692;28;20028;-84
2021/12/28 06:55:17;;;;;;;1.13;0.82;;;9.80;99.90;;;;;;4915898;28;20385;-84
2021/12/28 06:57:43;;;;;;;1.25;0.85;;;10.50;99.90;;;;;;4947479;28;20025;-83
2021/12/28 07:00:12;;;;;;;1.10;0.90;;;9.70;99.90;;;;;;4917388;28;20051;-82
2021/12/28 07:02:38;;;;;;;2.67;1.10;;;9.70;99.90;;;;;;4924741;28;20029;-85
2021/12/28 07:05:06;;;;;;;1.40;0.93;;;9.70;99.90;;;;;;4940637;28;20024;-85
2021/12/28 07:07:32;;;;;;;2.30;0.95;;;9.60;99.90;;;;;;4929359;28;20031;-82
2021/12/28 07:09:58;;;;;;;1.77;1.10;;;9.70;99.90;;;;;;4937476;28;20022;-85
2021/12/28 07:12:24;;;;;;;2.38;1.25;;;9.70;99.90;;;;;;4916485;28;20032;-84
2021/12/28 07:14:50;;;;;;;2.35;1.10;;;;;;;;;;4918079;28;20090;-82
2021/12/28 07:17:16;;;;;;;2.05;1.20;;;9.70;99.90;;;;;;4922657;28;20029;-82
2021/12/28 07:19:41;;;;;;;1.42;1.10;;;9.60;99.90;;;;;;4912049;28;20032;-84
2021/12/28 07:22:07;;;;;;;1.20;1.05;;;9.70;99.90;;;;;;4908047;28;20363;-82
2021/12/28 07:24:32;;;;;;;1.95;1.20;;;10.70;99.90;;;;;;4912829;28;20032;-83
2021/12/28 07:26:58;;;;;;;2.00;1.13;;;11.40;99.90;;;;;;4907230;28;20159;-85
2021/12/28 07:29:24;;;;;;;3.90;0.93;;;9.90;99.90;;;;;;4939985;28;20036;-85
2021/12/28 07:31:50;;;;;;;2.30;1.10;;;10.00;99.90;;;;;;4917850;28;20056;-83
2021/12/28 07:34:16;;;;;;;1.90;0.80;;;10.10;99.90;;;;;;4940243;28;20043;-84
2021/12/28 07:36:42;;;;;;;2.17;1.17;;;10.00;99.90;;;;;;4909811;28;20035;-83
2021/12/28 07:39:08;;;;;;;2.58;1.42;;;10.10;99.90;;;;;;4935863;28;20028;-82
2021/12/28 07:41:33;;;;;;;1.60;0.90;;;10.10;99.90;;;;;;4933277;28;20050;-84
2021/12/28 07:43:59;;;;;;;1.45;0.88;;;10.10;99.90;;;;;;4929756;28;20024;-85
2021/12/28 07:46:25;;;;;;;3.83;1.00;;;10.10;99.90;;;;;;4934552;28;20205;-80
2021/12/28 07:48:51;;;;;;;3.25;1.10;;;10.10;99.90;;;;;;4962020;28;20032;-81
2021/12/28 07:51:18;;;;;;;2.70;1.20;;;11.20;99.90;;;;;;4942928;28;20079;-80
2021/12/28 07:53:43;;;;;;;1.42;0.95;;;10.10;99.90;;;;;;4908468;28;20063;-80
2021/12/28 07:56:09;;;;;;;1.73;1.00;;;10.20;99.90;;;;;;4913344;28;20043;-81
2021/12/28 07:58:34;;;;;;;2.00;0.90;;;10.20;99.90;;;;;;4920803;28;20111;-82
2021/12/28 08:01:00;;;;;;;1.83;0.88;;;10.30;99.90;;;;;;4912696;28;20032;-82
2021/12/28 08:03:26;;;;;;;2.83;1.33;;;10.30;99.90;;;;;;4908468;28;21753;-83
2021/12/28 08:05:52;;;;;;;1.35;0.85;;;10.30;99.90;;;;;;4910997;28;20051;-83
2021/12/28 08:08:18;;;;;;;1.67;0.90;;;10.40;99.90;;;;;;4908822;28;20029;-84
2021/12/28 08:10:44;;;;;;;3.08;1.20;;;10.60;99.90;;;;;;4914952;28;20102;-84
2021/12/28 08:13:11;;;;;;;1.77;0.98;;;11.00;99.90;;;;;;4914391;28;20033;-82
2021/12/28 08:15:36;;;;;;;2.80;1.35;;;11.30;99.90;;;;;;4910954;28;20106;-83
2021/12/28 08:18:03;;;;;;;1.33;0.82;;;10.40;99.90;;;;;;4905868;28;20028;-80
2021/12/28 08:20:29;;;;;;;3.70;1.45;;;;;;;;;;4905812;28;20024;-83
2021/12/28 08:22:56;;;;;;;2.10;0.80;;;;;;;;;;4926346;28;20036;-83
2021/12/28 08:25:23;;;;;;;1.73;0.80;;;10.50;99.90;;;;;;4908558;28;20016;-80
2021/12/28 08:27:49;;;;;;;1.52;0.80;;;10.50;99.90;;;;;;4911976;28;20028;-78
2021/12/28 08:30:16;;;;;;;6.22;1.92;;;10.50;99.90;;;;;;4908480;28;20032;-82
2021/12/28 08:32:42;;;;;;;0.93;0.63;;;10.60;99.90;;;;;;4925874;28;20040;-83
2021/12/28 08:35:09;;;;;;;1.50;0.80;;;10.60;99.90;;;;;;4933645;28;21577;-83
2021/12/28 08:37:35;;;;;;;1.13;0.70;;;10.60;99.90;;;;;;4919683;28;20036;-81
2021/12/28 08:40:01;;;;;;;1.98;0.88;;;10.70;99.90;;;;;;4908659;28;20036;-79
2021/12/28 08:42:27;;;;;;;2.55;0.93;;;10.80;99.90;;;;;;4921809;28;20059;-79
2021/12/28 08:44:53;;;;;;;0.80;0.70;;;10.80;99.90;;;;;;4911962;28;20056;-84
2021/12/28 08:47:22;;;;;;;2.33;0.80;;;12.40;99.90;;;;;;4908494;28;20028;-82
2021/12/28 08:49:48;;;;;;;2.40;1.40;;;10.90;99.90;;;;;;4916110;28;20074;-88
2021/12/28 08:52:13;;;;;;;0.98;0.80;;;10.90;99.90;;;;;;4916191;28;20271;-82
2021/12/28 08:54:39;;;;;;;2.70;1.08;;;10.90;99.90;;;;;;4925247;28;20095;-81
2021/12/28 08:57:05;;;;;;;1.45;0.93;;;;;;;;;;4909184;28;20115;-84
2021/12/28 08:59:30;;;;;;;1.52;0.77;;;11.00;99.90;;;;;;4942966;28;20100;-81
2021/12/28 09:01:56;;;;;;;2.20;0.65;;;11.00;99.90;;;;;;4918947;28;20079;-80
2021/12/28 09:04:22;;;;;;;2.58;0.63;;;;;;;;;;4913696;28;20032;-81
2021/12/28 09:06:49;;;;;;;3.08;0.90;;;;;;;;;;4936621;28;20020;-83
2021/12/28 09:09:15;;;;;;;2.85;1.00;;;11.00;99.90;;;;;;4909538;28;20090;-84
2021/12/28 09:11:42;;;;;;;2.65;0.80;;;11.00;99.90;;;;;;4908290;28;20032;-84
2021/12/28 09:14:08;;;;;;;3.97;0.80;;;11.20;99.90;;;;;;4912208;28;20031;-83
2021/12/28 09:16:34;;;;;;;1.65;0.90;;;;;;;;;;4911727;28;20032;-80
2021/12/28 09:18:59;;;;;;;2.50;0.90;;;11.20;99.90;;;;;;4925143;28;20025;-84
2021/12/28 09:21:25;;;;;;;3.33;0.90;;;11.20;99.90;;;;;;4914692;28;20123;-83
2021/12/28 09:23:51;;;;;;;2.53;1.00;;;11.40;99.90;;;;;;4911515;28;20031;-82
2021/12/28 09:26:16;;;;;;;2.20;0.93;;;11.30;99.90;;;;;;4916296;28;20024;-82
2021/12/28 09:28:42;;;;;;;2.75;1.30;;;11.30;99.90;;;;;;4912379;28;20047;-84
2021/12/28 09:31:08;;;;;;;2.90;1.13;;;11.20;99.90;;;;;;4944760;28;20085;-84
2021/12/28 09:33:33;;;;;;;2.90;1.10;;;11.10;99.90;;;;;;4906527;28;20421;-84
2021/12/28 09:36:00;;;;;;;3.78;1.15;;;11.10;99.90;;;;;;4909614;28;20036;-85
2021/12/28 09:38:27;;;;;;;3.72;1.25;;;11.10;99.90;;;;;;4911389;28;20028;-84
2021/12/28 09:40:54;;;;;;;2.00;0.90;;;11.20;99.90;;;;;;4912337;28;20466;-82
2021/12/28 09:43:20;;;;;;;2.10;0.82;;;11.20;99.90;;;;;;4940179;28;20096;-81
2021/12/28 09:45:46;;;;;;;3.05;1.00;;;11.30;99.90;;;;;;4931902;28;20063;-86
2021/12/28 09:48:11;;;;;;;2.45;1.10;;;11.20;99.90;;;;;;4909889;28;20038;-82
2021/12/28 09:50:39;;;;;;;2.58;1.25;;;11.30;99.90;;;;;;4921618;28;20043;-83
2021/12/28 09:53:06;;;;;;;4.72;1.33;;;11.10;99.90;;;;;;4928544;28;20053;-80
2021/12/28 09:55:32;;;;;;;2.67;1.00;;;11.30;99.90;;;;;;4911139;28;20500;-83
2021/12/28 09:57:59;;;;;;;2.25;0.90;;;11.40;99.90;;;;;;4926022;28;20025;-78
2021/12/28 10:00:24;;;;;;;2.00;0.95;;;11.40;99.90;;;;;;4929303;28;20061;-81
2021/12/28 10:02:51;;;;;;;3.90;1.00;;;11.40;99.90;;;;;;4922557;28;20091;-81
2021/12/28 10:05:22;;;;;;;3.25;1.70;;;11.40;99.90;;;;;;4912809;28;20484;-81
2021/12/28 10:07:54;;;;;;;5.65;2.05;;;11.50;99.90;;;;;;4910051;28;20024;-80
2021/12/28 10:10:20;;;;;;;7.40;2.88;;;11.60;99.90;;;;;;4931955;28;20036;-83
2021/12/28 10:12:52;;;;;;;4.20;1.20;;;11.60;99.90;;;;;;4910354;28;20128;-82
2021/12/28 10:15:24;;;;;;;2.55;1.25;;;12.40;99.90;;;;;;4914410;28;20394;-83
2021/12/28 10:17:52;;;;;;;2.83;1.10;;;12.00;99.90;;;;;;4911886;28;20487;-81
2021/12/28 10:20:28;;;;;;;3.17;1.17;;;12.60;99.90;;;;;;4909059;28;20033;-83
2021/12/28 10:23:02;;;;;;;3.55;1.00;;;12.00;99.90;;;;;;4912490;28;20024;-81
2021/12/28 10:25:34;;;;;;;5.82;1.48;;;11.90;99.90;;;;;;4912592;28;20087;-80
2021/12/28 10:28:04;;;;;;;4.10;1.60;;;11.80;99.90;;;;;;4914589;28;20027;-82
2021/12/28 10:30:31;;;;;;;4.07;1.25;;;11.80;99.90;;;;;;4912978;28;20063;-79
2021/12/28 10:33:01;;;;;;;3.60;1.40;;;14.50;99.90;;;;;;4916722;28;20132;-78
2021/12/28 10:35:29;;;;;;;4.97;1.58;;;11.80;99.90;;;;;;4927978;28;20052;-83
2021/12/28 10:38:07;;;;;;;4.38;1.40;;;11.70;99.90;;;;;;4912306;28;20032;-82
2021/12/28 10:40:37;;;;;;;2.80;1.00;;;11.70;99.90;;;;;;4934578;28;20106;-84
2021/12/28 10:43:11;;;;;;;3.40;1.10;;;11.80;99.90;;;;;;4916602;28;20047;-82
2021/12/28 10:45:59;;;;;;;2.90;0.80;;;11.70;99.90;;;;;;4908811;28;20394;-82
2021/12/28 10:48:35;;;;;;;2.25;0.80;;;11.70;99.90;;;;;;4912384;28;20123;-82
2021/12/28 10:51:06;;;;;;;2.88;1.10;;;11.80;99.90;;;;;;4918071;28;20047;-83
2021/12/28 10:53:49;;;;;;;3.53;1.20;;;11.70;99.90;;;;;;4918017;28;20494;-82
2021/12/28 10:56:15;;;;;;;3.80;0.90;;;11.80;99.90;;;;;;4921811;28;20653;-81
2021/12/28 10:58:45;;;;;;;4.07;0.98;;;11.80;99.90;;;;;;4912363;28;20036;-81
2021/12/28 11:01:16;;;;;;;;;;;11.70;99.90;;;;;;4916685;28;20035;-83
2021/12/28 11:03:45;;;;;;;4.57;1.02;;;12.00;99.90;;;;;;4916224;28;19980;-82
2021/12/28 11:06:32;;;;;;;3.38;1.02;;;12.00;99.90;;;;;;4922038;28;20074;-81
2021/12/28 11:09:04;;;;;;;2.15;0.73;;;12.70;99.90;;;;;;4912856;28;20122;-82
2021/12/28 11:11:30;;;;;;;3.95;1.70;;;11.70;99.90;;;;;;4916896;28;20040;-84
2021/12/28 11:14:05;;;;;;;2.65;0.75;;;12.90;99.90;;;;;;4924034;28;21204;-83
2021/12/28 11:16:31;;;;;;;3.80;1.10;;;11.70;99.90;;;;;;4928791;28;20047;-79
2021/12/28 11:18:59;;;;;;;3.95;1.35;;;11.70;99.90;;;;;;4923933;28;20028;-84
2021/12/28 11:21:28;;;;;;;4.30;1.30;;;11.80;99.90;;;;;;4924396;28;20038;-83
2021/12/28 11:24:10;;;;;;;4.50;1.60;;;11.70;99.90;;;;;;4926479;28;20029;-84
2021/12/28 11:26:40;;;;;;;1.83;1.00;;;9.20;99.90;;;;;;4925422;28;20024;-82
2021/12/28 11:29:15;;;;;;;3.28;1.20;;;11.50;99.90;;;;;;4925053;28;20024;-83
2021/12/28 11:31:42;;;;;;;5.18;1.15;;;11.50;99.90;;;;;;4924540;28;20036;-83
2021/12/28 11:34:12;;;;;;;4.80;1.00;;;11.50;99.90;;;;;;4946792;28;20032;-82
2021/12/28 11:37:04;;;;;;;8.65;1.20;;;11.50;99.90;;;;;;4919689;28;20103;-83
2021/12/28 11:39:37;;;;;;;5.75;1.65;;;11.50;99.90;;;;;;4946113;28;20048;-83
2021/12/28 11:42:03;;;;;;;6.18;1.50;;;11.50;99.90;;;;;;4922152;28;20458;-82
2021/12/28 11:44:37;;;;;;;3.15;1.30;;;11.50;99.90;;;;;;4910406;28;20028;-82
2021/12/28 11:47:07;;;;;;;5.32;1.45;;;13.70;99.90;;;;;;4910553;28;20024;-83
2021/12/28 11:49:34;;;;;;;5.68;1.48;;;;;;;;;;4912620;28;20040;-78
2021/12/28 11:52:02;;;;;;;6.47;1.20;;;11.60;99.90;;;;;;4909924;28;20049;-82
2021/12/28 11:54:32;;;;;;;10.85;1.42;;;11.60;99.90;;;;;;4917826;28;20041;-83
2021/12/28 11:57:05;;;;;;;6.80;1.77;;;11.50;99.90;;;;;;4912638;28;20513;-82
2021/12/28 11:59:32;;;;;;;7.13;2.42;;;11.50;99.90;;;;;;4914162;28;20051;-84
2021/12/28 12:02:09;;;;;;;6.88;1.98;;;11.50;99.90;;;;;;4931972;28;20024;-84
2021/12/28 12:04:34;;;;;;;11.85;1.80;;;11.50;99.90;;;;;;4903298;28;20029;-86
2021/12/28 12:07:10;;;;;;;9.43;1.77;;;11.40;99.90;;;;;;4937448;28;20039;-81
2021/12/28 12:09:52;;;;;;;8.82;2.03;;;11.60;99.90;;;;;;4935748;28;20051;-85
2021/12/28 12:12:19;;;;;;;9.32;1.70;;;11.40;99.90;;;;;;4952711;28;20416;-81
2021/12/28 12:14:51;;;;;;;9.07;1.65;;;11.50;99.90;;;;;;4920463;28;20037;-81
2021/12/28 12:17:26;;;;;;;9.13;1.30;;;11.50;99.90;;;;;;4945195;28;20099;-82
2021/12/28 12:19:52;;;;;;;6.65;2.13;;;11.50;99.90;;;;;;4937586;28;20075;-85
2021/12/28 12:22:30;;;;;;;12.43;1.95;;;11.50;99.90;;;;;;4925851;28;20032;-83
2021/12/28 12:24:58;;;;;;;5.22;1.70;;;11.40;99.90;;;;;;4937474;28;20024;-84
2021/12/28 12:27:43;;;;;;;6.25;1.60;;;11.50;99.90;;;;;;4911203;28;20033;-79
2021/12/28 12:30:17;;;;;;;5.43;1.50;;;11.40;99.90;;;;;;4954744;28;20049;-84
2021/12/28 12:33:10;;;;;;;4.93;1.38;;;11.40;99.90;;;;;;4943731;28;20083;-85
2021/12/28 12:35:46;;;;;;;7.57;1.48;;;11.40;99.90;;;;;;4928882;28;20044;-83
2021/12/28 12:38:12;;;;;;;6.35;1.30;;;11.40;99.90;;;;;;4911068;28;20051;-82
2021/12/28 12:41:06;;;;;;;5.40;1.27;;;11.40;99.90;;;;;;4914243;28;20036;-84
2021/12/28 12:43:38;;;;;;;5.65;1.40;;;11.20;99.90;;;;;;4957138;28;20553;-86
2021/12/28 12:46:24;;;;;;;9.18;2.05;;;12.10;99.90;;;;;;4935901;28;20039;-87
2021/12/28 12:48:52;;;;;;;6.20;1.38;;;11.20;99.90;;;;;;4906244;28;20028;-83
2021/12/28 12:51:21;;;;;;;5.57;1.15;;;11.20;99.90;;;;;;4905327;28;20108;-83
2021/12/28 12:54:01;;;;;;;4.28;1.20;;;11.20;99.90;;;;;;4915631;28;20028;-82
2021/12/28 12:56:28;;;;;;;;;;;11.20;99.90;;;;;;4911043;28;20490;-80
2021/12/28 12:58:57;;;;;;;2.25;1.10;;;11.30;99.90;;;;;;4907566;28;19919;-84